createdAt,value
2023-07-25T00:00:09.171Z,55.94
2023-07-25T00:02:37.744Z,56.11
2023-07-25T00:05:06.682Z,56.27
2023-07-25T00:07:36.553Z,56.27
2023-07-25T00:10:05.402Z,56.07
2023-07-25T00:12:33.965Z,56.26
2023-07-25T00:15:03.579Z,56.41
2023-07-25T00:17:32.398Z,56.41
2023-07-25T00:20:00.899Z,56.41
2023-07-25T00:22:29.491Z,56.79
2023-07-25T00:24:59.427Z,56.83
2023-07-25T00:27:27.954Z,56.86
2023-07-25T00:29:57.680Z,56.94
2023-07-25T00:32:26.257Z,56.85
2023-07-25T00:34:55.038Z,56.89
2023-07-25T00:37:24.945Z,56.90
2023-07-25T00:39:55.984Z,57.09
2023-07-25T00:42:31.576Z,56.92
2023-07-25T00:45:00.081Z,56.93
2023-07-25T00:47:28.872Z,57.09
2023-07-25T00:49:57.802Z,57.01
2023-07-25T00:52:27.239Z,57.11
2023-07-25T00:54:55.750Z,56.95
2023-07-25T00:57:24.305Z,57.18
2023-07-25T00:59:56.824Z,57.44
2023-07-25T01:02:26.084Z,57.43
2023-07-25T01:04:58.324Z,57.57
2023-07-25T01:07:27.869Z,57.53
2023-07-25T01:09:58.116Z,57.56
2023-07-25T01:12:28.300Z,57.63
2023-07-25T01:14:58.317Z,57.82
2023-07-25T01:17:28.429Z,57.71
2023-07-25T01:19:57.481Z,57.99
2023-07-25T01:22:28.663Z,57.99
2023-07-25T01:24:58.850Z,57.81
2023-07-25T01:27:27.909Z,57.99
2023-07-25T01:29:56.437Z,57.87
2023-07-25T01:32:24.973Z,57.69
2023-07-25T01:34:53.488Z,57.80
2023-07-25T01:37:23.412Z,57.64
2023-07-25T01:39:51.958Z,57.88
2023-07-25T01:42:21.922Z,57.69
2023-07-25T01:44:50.497Z,57.69
2023-07-25T01:47:19.074Z,57.58
2023-07-25T01:49:47.757Z,58.02
2023-07-25T01:52:16.289Z,57.96
2023-07-25T01:54:45.872Z,57.89
2023-07-25T01:57:14.422Z,57.97
2023-07-25T01:59:44.348Z,58.37
2023-07-25T02:02:13.663Z,58.35
2023-07-25T02:04:43.734Z,57.91
2023-07-25T02:07:12.539Z,58.23
2023-07-25T02:09:41.244Z,57.90
2023-07-25T02:12:11.129Z,57.90
2023-07-25T02:14:40.146Z,58.17
2023-07-25T02:17:10.237Z,58.11
2023-07-25T02:19:39.612Z,58.29
2023-07-25T02:22:08.611Z,58.02
2023-07-25T02:24:37.273Z,58.07
2023-07-25T02:27:09.690Z,58.19
2023-07-25T02:29:40.999Z,58.04
2023-07-25T02:32:11.438Z,57.97
2023-07-25T02:34:40.559Z,58.19
2023-07-25T02:37:09.598Z,57.83
2023-07-25T02:39:38.095Z,57.81
2023-07-25T02:42:07.071Z,57.97
2023-07-25T02:44:35.629Z,57.91
2023-07-25T02:47:04.631Z,57.99
2023-07-25T02:49:35.463Z,58.13
2023-07-25T02:52:04.432Z,58.31
2023-07-25T02:54:33.031Z,58.35
2023-07-25T02:57:01.587Z,58.28
2023-07-25T02:59:31.427Z,58.11
2023-07-25T03:02:00.033Z,58.06
2023-07-25T03:04:28.594Z,58.26
2023-07-25T03:06:58.555Z,58.17
2023-07-25T03:09:27.119Z,58.01
2023-07-25T03:11:55.644Z,58.38
2023-07-25T03:14:24.316Z,58.32
2023-07-25T03:16:53.268Z,58.22
2023-07-25T03:19:22.146Z,58.23
2023-07-25T03:21:50.900Z,58.00
2023-07-25T03:24:20.898Z,58.10
2023-07-25T03:26:50.301Z,57.97
2023-07-25T03:29:19.472Z,58.34
2023-07-25T03:31:49.374Z,58.33
2023-07-25T03:34:19.087Z,58.05
2023-07-25T03:36:49.826Z,58.18
2023-07-25T03:39:18.545Z,58.05
2023-07-25T03:41:50.960Z,58.12
2023-07-25T03:44:20.579Z,58.05
2023-07-25T03:46:49.209Z,58.05
2023-07-25T03:49:19.253Z,57.92
2023-07-25T03:51:47.891Z,58.00
2023-07-25T03:54:16.755Z,58.26
2023-07-25T03:56:45.819Z,57.93
2023-07-25T03:59:17.535Z,58.13
2023-07-25T04:01:46.149Z,57.99
2023-07-25T04:04:14.795Z,58.16
2023-07-25T04:06:43.307Z,58.52
2023-07-25T04:09:11.819Z,58.42
2023-07-25T04:11:40.322Z,58.09
2023-07-25T04:14:08.852Z,58.25
2023-07-25T04:16:39.027Z,58.12
2023-07-25T04:19:07.630Z,57.93
2023-07-25T04:21:36.283Z,58.11
2023-07-25T04:24:06.543Z,58.05
2023-07-25T04:26:35.139Z,57.96
2023-07-25T04:29:03.731Z,57.97
2023-07-25T04:31:32.627Z,58.13
2023-07-25T04:34:02.815Z,58.26
2023-07-25T04:36:31.424Z,58.10
2023-07-25T04:39:00.073Z,58.26
2023-07-25T04:41:28.699Z,58.11
2023-07-25T04:43:57.273Z,58.37
2023-07-25T04:46:25.834Z,58.08
2023-07-25T04:48:54.439Z,57.96
2023-07-25T04:51:24.455Z,58.00
2023-07-25T04:53:53.024Z,57.47
2023-07-25T04:56:24.231Z,57.55
2023-07-25T04:58:52.710Z,57.52
2023-07-25T05:01:21.201Z,57.50
2023-07-25T05:03:49.699Z,57.56
2023-07-25T05:06:18.192Z,57.78
2023-07-25T05:08:48.037Z,57.71
2023-07-25T05:11:16.612Z,57.52
2023-07-25T05:13:45.088Z,57.88
2023-07-25T05:16:13.619Z,57.41
2023-07-25T05:18:42.152Z,57.46
2023-07-25T05:21:10.617Z,57.64
2023-07-25T05:23:39.106Z,57.75
2023-07-25T05:26:09.006Z,57.81
2023-07-25T05:28:37.552Z,57.74
2023-07-25T05:31:06.127Z,57.76
2023-07-25T05:33:34.789Z,57.79
2023-07-25T05:36:03.857Z,57.56
2023-07-25T05:38:32.428Z,57.61
2023-07-25T05:41:02.049Z,57.73
2023-07-25T05:43:31.945Z,57.80
2023-07-25T05:46:00.526Z,57.58
2023-07-25T05:48:29.204Z,57.62
2023-07-25T05:50:57.694Z,57.60
2023-07-25T05:53:26.272Z,57.64
2023-07-25T05:55:55.112Z,57.66
2023-07-25T05:58:23.781Z,57.72
2023-07-25T06:00:53.686Z,57.56
2023-07-25T06:03:22.967Z,57.47
2023-07-25T06:05:51.506Z,57.67
2023-07-25T06:08:20.144Z,57.83
2023-07-25T06:10:48.737Z,57.50
2023-07-25T06:13:17.387Z,57.60
2023-07-25T06:15:46.226Z,57.62
2023-07-25T06:18:16.184Z,57.44
2023-07-25T06:20:44.721Z,57.47
2023-07-25T06:23:13.227Z,57.56
2023-07-25T06:25:41.879Z,57.52
2023-07-25T06:28:12.673Z,57.53
2023-07-25T06:30:41.177Z,57.52
2023-07-25T06:33:09.719Z,57.42
2023-07-25T06:35:39.596Z,57.57
2023-07-25T06:38:08.085Z,57.54
2023-07-25T06:40:36.563Z,57.41
2023-07-25T06:43:05.079Z,57.26
2023-07-25T06:45:33.799Z,57.12
2023-07-25T06:48:02.320Z,57.26
2023-07-25T06:50:33.727Z,57.29
2023-07-25T06:53:04.415Z,57.50
2023-07-25T06:55:36.036Z,57.40
2023-07-25T06:58:04.545Z,57.22
2023-07-25T07:00:33.049Z,57.00
2023-07-25T07:03:01.833Z,57.27
2023-07-25T07:05:31.199Z,57.09
2023-07-25T07:08:00.929Z,57.05
2023-07-25T07:10:33.523Z,57.14
2023-07-25T07:13:02.248Z,57.06
2023-07-25T07:15:30.739Z,57.32
2023-07-25T07:17:59.290Z,57.32
2023-07-25T07:20:30.181Z,57.03
2023-07-25T07:22:58.669Z,57.19
2023-07-25T07:25:27.276Z,57.16
2023-07-25T07:27:57.137Z,57.21
2023-07-25T07:30:25.701Z,57.26
2023-07-25T07:32:54.197Z,57.40
2023-07-25T07:35:22.714Z,57.27
2023-07-25T07:37:51.401Z,57.21
2023-07-25T07:40:19.982Z,57.26
2023-07-25T07:42:50.214Z,57.08
2023-07-25T07:45:20.210Z,57.02
2023-07-25T07:47:48.789Z,56.83
2023-07-25T07:50:17.347Z,56.99
2023-07-25T07:52:45.929Z,56.90
2023-07-25T07:55:14.985Z,56.94
2023-07-25T07:57:44.603Z,56.79
2023-07-25T08:00:16.502Z,56.61
2023-07-25T08:02:49.713Z,56.20
2023-07-25T08:05:18.702Z,56.35
2023-07-25T08:07:47.389Z,56.65
2023-07-25T08:10:16.197Z,56.64
2023-07-25T08:12:44.687Z,56.69
2023-07-25T08:15:13.698Z,56.45
2023-07-25T08:17:42.284Z,56.53
2023-07-25T08:20:14.550Z,56.55
2023-07-25T08:22:43.113Z,56.51
2023-07-25T08:25:12.730Z,56.37
2023-07-25T08:27:41.229Z,56.68
2023-07-25T08:30:10.722Z,56.72
2023-07-25T08:32:39.320Z,56.75
2023-07-25T08:35:08.408Z,56.69
2023-07-25T08:37:38.435Z,56.87
2023-07-25T08:40:08.344Z,56.96
2023-07-25T08:42:39.256Z,56.54
2023-07-25T08:45:08.745Z,56.73
2023-07-25T08:47:41.958Z,56.81
2023-07-25T08:50:15.769Z,56.96
2023-07-25T08:52:50.843Z,56.70
2023-07-25T08:55:19.550Z,56.83
2023-07-25T08:57:48.927Z,56.80
2023-07-25T09:00:19.648Z,56.76
2023-07-25T09:02:53.729Z,56.68
2023-07-25T09:05:22.940Z,56.52
2023-07-25T09:07:52.889Z,56.82
2023-07-25T09:10:21.706Z,56.68
2023-07-25T09:12:50.321Z,56.89
2023-07-25T09:15:19.081Z,56.89
2023-07-25T09:17:47.703Z,56.99
2023-07-25T09:20:16.600Z,57.05
2023-07-25T09:22:48.438Z,56.91
2023-07-25T09:25:18.535Z,56.05
2023-07-25T09:27:47.796Z,56.42
2023-07-25T09:30:16.589Z,56.70
2023-07-25T09:32:48.920Z,56.73
2023-07-25T09:35:18.007Z,56.67
2023-07-25T09:37:53.593Z,56.83
2023-07-25T09:40:24.111Z,56.78
2023-07-25T09:42:52.989Z,56.98
2023-07-25T09:45:22.081Z,56.55
2023-07-25T09:47:53.952Z,56.62
2023-07-25T09:50:27.468Z,56.33
2023-07-25T09:52:56.106Z,56.63
2023-07-25T09:55:26.036Z,56.42
2023-07-25T09:57:55.428Z,56.40
2023-07-25T10:00:25.054Z,56.35
2023-07-25T10:02:54.690Z,55.77
2023-07-25T10:05:23.649Z,53.56
2023-07-25T10:07:56.864Z,54.07
2023-07-25T10:10:28.746Z,53.81
2023-07-25T10:12:57.343Z,53.35
2023-07-25T10:15:26.490Z,53.30
2023-07-25T10:18:03.376Z,53.04
2023-07-25T10:20:32.450Z,52.44
2023-07-25T10:23:12.247Z,51.82
2023-07-25T10:25:42.648Z,51.12
2023-07-25T10:28:13.045Z,50.57
2023-07-25T10:30:46.105Z,51.81
2023-07-25T10:33:15.653Z,51.22
2023-07-25T10:35:50.452Z,50.93
2023-07-25T10:38:34.366Z,50.98
2023-07-25T10:41:14.287Z,50.91
2023-07-25T10:44:02.542Z,50.95
2023-07-25T10:46:33.225Z,51.05
2023-07-25T10:49:03.203Z,51.03
2023-07-25T10:51:52.579Z,50.96
2023-07-25T10:54:22.411Z,50.97
2023-07-25T10:57:15.751Z,50.66
2023-07-25T11:00:02.589Z,50.88
2023-07-25T11:02:33.057Z,50.62
2023-07-25T11:05:24.194Z,50.62
2023-07-25T11:07:54.769Z,50.46
2023-07-25T11:10:25.861Z,50.58
2023-07-25T11:12:57.901Z,50.78
2023-07-25T11:17:58.517Z,50.46
2023-07-25T11:20:27.094Z,50.30
2023-07-25T11:22:56.071Z,50.50
2023-07-25T11:25:24.642Z,50.11
2023-07-25T11:27:53.416Z,50.14
2023-07-25T11:30:23.409Z,49.93
2023-07-25T11:32:53.707Z,49.70
2023-07-25T11:35:25.585Z,49.69
2023-07-25T11:38:02.531Z,49.42
2023-07-25T11:40:32.855Z,49.32
2023-07-25T11:43:01.626Z,48.77
2023-07-25T11:45:31.833Z,48.93
2023-07-25T11:48:00.754Z,49.01
2023-07-25T11:50:33.182Z,49.01
2023-07-25T11:53:03.715Z,49.03
2023-07-25T11:55:32.695Z,49.29
2023-07-25T11:58:04.429Z,49.29
2023-07-25T12:00:42.747Z,49.46
2023-07-25T12:03:20.965Z,49.25
2023-07-25T12:05:56.805Z,49.19
2023-07-25T12:08:33.269Z,49.24
2023-07-25T12:11:03.589Z,49.08
2023-07-25T12:13:32.447Z,49.15
2023-07-25T12:16:03.259Z,48.85
2023-07-25T12:18:33.123Z,49.06
2023-07-25T12:21:06.224Z,49.08
2023-07-25T12:23:39.281Z,49.04
2023-07-25T12:26:09.722Z,48.97
2023-07-25T12:28:41.888Z,49.03
2023-07-25T12:31:12.638Z,48.96
2023-07-25T12:33:42.409Z,49.07
2023-07-25T12:36:11.075Z,48.82
2023-07-25T12:38:39.830Z,48.99
2023-07-25T12:41:08.950Z,48.84
2023-07-25T12:43:37.605Z,48.89
2023-07-25T12:46:06.498Z,49.05
2023-07-25T12:48:36.447Z,49.06
2023-07-25T12:51:05.346Z,49.05
2023-07-25T12:53:34.185Z,48.96
2023-07-25T12:56:02.733Z,48.86
2023-07-25T12:58:31.488Z,49.04
2023-07-25T13:01:00.044Z,48.79
2023-07-25T13:03:29.698Z,49.04
2023-07-25T13:05:59.672Z,48.71
2023-07-25T13:08:28.165Z,48.96
2023-07-25T13:10:56.875Z,49.04
2023-07-25T13:13:25.456Z,49.03
2023-07-25T13:15:54.213Z,48.75
2023-07-25T13:18:23.000Z,48.62
2023-07-25T13:20:52.942Z,48.65
2023-07-25T13:23:22.835Z,48.33
2023-07-25T13:25:51.821Z,48.39
2023-07-25T13:28:20.320Z,48.44
2023-07-25T13:30:48.964Z,48.15
2023-07-25T13:33:17.580Z,48.18
2023-07-25T13:35:46.176Z,48.44
2023-07-25T13:38:14.656Z,48.32
2023-07-25T13:40:44.601Z,48.25
2023-07-25T13:43:13.138Z,48.19
2023-07-25T13:45:52.161Z,47.84
2023-07-25T13:48:22.361Z,47.90
2023-07-25T13:50:54.701Z,48.49
2023-07-25T13:53:24.823Z,48.24
2023-07-25T13:55:54.827Z,47.88
2023-07-25T13:58:24.230Z,47.87
2023-07-25T14:00:53.401Z,47.74
2023-07-25T14:03:21.965Z,48.01
2023-07-25T14:05:50.556Z,47.94
2023-07-25T14:08:19.264Z,47.96
2023-07-25T14:10:47.849Z,47.84
2023-07-25T14:13:17.832Z,47.92
2023-07-25T14:15:46.847Z,48.62
2023-07-25T14:18:15.458Z,49.06
2023-07-25T14:20:44.034Z,48.66
2023-07-25T14:23:12.547Z,48.52
2023-07-25T14:25:41.088Z,48.57
2023-07-25T14:28:09.627Z,48.63
2023-07-25T14:30:39.505Z,49.08
2023-07-25T14:33:08.179Z,48.94
2023-07-25T14:35:36.816Z,49.26
2023-07-25T14:38:08.248Z,49.61
2023-07-25T14:40:37.313Z,49.79
2023-07-25T14:43:05.840Z,50.31
2023-07-25T14:45:36.444Z,50.51
2023-07-25T14:48:07.069Z,51.12
2023-07-25T14:50:35.861Z,51.13
2023-07-25T14:53:04.448Z,52.36
2023-07-25T14:55:33.102Z,52.46
2023-07-25T14:58:01.804Z,52.33
2023-07-25T15:00:32.093Z,52.06
2023-07-25T15:03:00.668Z,51.78
2023-07-25T15:05:30.609Z,51.22
2023-07-25T15:07:59.194Z,52.74
2023-07-25T15:10:27.983Z,52.34
2023-07-25T15:12:56.486Z,52.17
2023-07-25T15:15:25.115Z,51.82
2023-07-25T15:17:53.978Z,51.05
2023-07-25T15:20:24.074Z,50.31
2023-07-25T15:22:54.155Z,50.41
2023-07-25T15:25:22.872Z,50.40
2023-07-25T15:27:51.371Z,49.77
2023-07-25T15:30:20.428Z,49.57
2023-07-25T15:32:49.014Z,48.82
2023-07-25T15:35:18.511Z,49.01
2023-07-25T15:37:48.664Z,48.86
2023-07-25T15:40:18.707Z,48.14
2023-07-25T15:42:47.342Z,47.96
2023-07-25T15:45:15.917Z,49.60
2023-07-25T15:47:44.498Z,49.74
2023-07-25T15:50:13.059Z,49.39
2023-07-25T15:52:42.157Z,52.38
2023-07-25T15:55:10.836Z,53.45
2023-07-25T15:57:40.752Z,53.05
2023-07-25T16:00:11.040Z,51.99
2023-07-25T16:02:39.685Z,51.01
2023-07-25T16:05:08.583Z,50.80
2023-07-25T16:07:37.195Z,50.07
2023-07-25T16:10:06.740Z,49.98
2023-07-25T16:12:35.357Z,49.45
2023-07-25T16:15:06.019Z,49.65
2023-07-25T16:17:34.595Z,49.37
2023-07-25T16:20:04.637Z,48.77
2023-07-25T16:22:33.673Z,49.14
2023-07-25T16:25:02.413Z,49.33
2023-07-25T16:27:30.990Z,48.86
2023-07-25T16:30:00.374Z,48.33
2023-07-25T16:32:30.377Z,48.05
2023-07-25T16:34:59.500Z,48.01
2023-07-25T16:37:28.015Z,47.81
2023-07-25T16:39:56.658Z,47.86
2023-07-25T16:42:25.332Z,47.91
2023-07-25T16:44:55.700Z,48.02
2023-07-25T16:47:24.198Z,48.40
2023-07-25T16:49:54.151Z,48.34
2023-07-25T16:52:22.673Z,48.30
2023-07-25T16:54:51.221Z,48.57
2023-07-25T16:57:19.788Z,48.65
2023-07-25T16:59:49.956Z,48.63
2023-07-25T17:02:18.488Z,48.83
2023-07-25T17:04:47.043Z,48.81
2023-07-25T17:07:16.941Z,48.77
2023-07-25T17:09:46.032Z,48.70
2023-07-25T17:12:14.716Z,48.78
2023-07-25T17:14:43.991Z,48.84
2023-07-25T17:17:13.889Z,49.03
2023-07-25T17:19:42.826Z,48.82
2023-07-25T17:22:11.667Z,48.99
2023-07-25T17:24:41.731Z,48.85
2023-07-25T17:27:10.909Z,48.72
2023-07-25T17:29:40.121Z,48.92
2023-07-25T17:32:08.889Z,48.96
2023-07-25T17:34:38.388Z,48.62
2023-07-25T17:37:08.292Z,48.56
2023-07-25T17:39:37.042Z,48.71
2023-07-25T17:42:07.374Z,48.63
2023-07-25T17:44:35.979Z,48.54
2023-07-25T17:47:04.971Z,48.37
2023-07-25T17:49:34.326Z,48.43
2023-07-25T17:52:03.193Z,48.36
2023-07-25T17:54:32.657Z,48.51
2023-07-25T17:57:01.402Z,48.37
2023-07-25T17:59:32.761Z,48.42
2023-07-25T18:02:01.920Z,48.12
2023-07-25T18:04:31.037Z,48.34
2023-07-25T18:06:59.657Z,48.32
2023-07-25T18:09:28.405Z,48.52
2023-07-25T18:11:57.598Z,48.49
2023-07-25T18:14:26.381Z,48.56
2023-07-25T18:16:56.528Z,48.74
2023-07-25T18:19:25.377Z,48.54
2023-07-25T18:21:53.888Z,48.78
2023-07-25T18:24:22.501Z,48.84
2023-07-25T18:26:51.544Z,48.85
2023-07-25T18:29:20.119Z,49.27
2023-07-25T18:31:48.715Z,49.00
2023-07-25T18:34:19.010Z,48.99
2023-07-25T18:36:47.629Z,49.15
2023-07-25T18:39:16.137Z,49.16
2023-07-25T18:41:44.967Z,49.29
2023-07-25T18:44:14.137Z,49.60
2023-07-25T18:46:42.782Z,49.47
2023-07-25T18:49:11.534Z,49.38
2023-07-25T18:51:41.847Z,49.40
2023-07-25T18:54:10.560Z,49.47
2023-07-25T18:56:39.163Z,49.37
2023-07-25T18:59:07.667Z,49.52
2023-07-25T19:01:36.459Z,49.26
2023-07-25T19:04:05.104Z,49.55
2023-07-25T19:06:34.602Z,49.63
2023-07-25T19:09:05.142Z,49.62
2023-07-25T19:11:33.681Z,49.75
2023-07-25T19:14:02.194Z,49.84
2023-07-25T19:16:31.524Z,49.64
2023-07-25T19:19:00.635Z,49.62
2023-07-25T19:21:29.201Z,49.88
2023-07-25T19:23:56.763Z,49.93
2023-07-25T19:26:26.725Z,49.79
2023-07-25T19:28:55.296Z,49.79
2023-07-25T19:31:24.398Z,49.67
2023-07-25T19:33:53.042Z,49.50
2023-07-25T19:36:21.640Z,49.60
2023-07-25T19:38:50.158Z,50.08
2023-07-25T19:41:19.798Z,49.44
2023-07-25T19:43:49.742Z,49.72
2023-07-25T19:46:18.294Z,49.64
2023-07-25T19:48:47.512Z,49.77
2023-07-25T19:51:16.979Z,49.77
2023-07-25T19:53:48.380Z,49.60
2023-07-25T19:56:18.075Z,49.83
2023-07-25T19:58:47.629Z,49.96
2023-07-25T20:01:17.532Z,49.97
2023-07-25T20:03:46.248Z,49.88
2023-07-25T20:06:15.064Z,50.07
2023-07-25T20:08:43.557Z,49.90
2023-07-25T20:11:12.063Z,50.17
2023-07-25T20:13:40.611Z,50.35
2023-07-25T20:16:09.335Z,49.94
2023-07-25T20:18:39.288Z,50.28
2023-07-25T20:21:11.297Z,50.28
2023-07-25T20:23:40.460Z,50.13
2023-07-25T20:26:09.194Z,50.71
2023-07-25T20:28:37.752Z,50.24
2023-07-25T20:31:08.133Z,50.50
2023-07-25T20:33:37.274Z,50.55
2023-07-25T20:36:07.489Z,50.71
2023-07-25T20:38:36.606Z,50.25
2023-07-25T20:41:05.321Z,50.44
2023-07-25T20:43:33.930Z,50.65
2023-07-25T20:46:05.855Z,50.74
2023-07-25T20:48:36.087Z,50.55
2023-07-25T20:51:05.469Z,50.90
2023-07-25T20:53:35.878Z,51.21
2023-07-25T20:56:05.472Z,51.04
2023-07-25T20:58:34.048Z,50.71
2023-07-25T21:01:02.698Z,50.69
2023-07-25T21:03:31.323Z,50.85
2023-07-25T21:06:00.956Z,51.02
2023-07-25T21:08:29.540Z,51.13
2023-07-25T21:11:00.241Z,51.10
2023-07-25T21:13:28.748Z,51.12
2023-07-25T21:15:57.674Z,51.23
2023-07-25T21:18:26.534Z,51.37
2023-07-25T21:20:55.618Z,51.45
2023-07-25T21:23:25.779Z,51.14
2023-07-25T21:25:54.710Z,51.15
2023-07-25T21:28:24.913Z,51.36
2023-07-25T21:30:54.346Z,51.69
2023-07-25T21:33:25.169Z,51.49
2023-07-25T21:36:08.223Z,51.54
2023-07-25T21:38:36.813Z,51.34
2023-07-25T21:41:07.336Z,51.49
2023-07-25T21:43:38.137Z,51.43
2023-07-25T21:46:07.038Z,51.79
2023-07-25T21:48:36.215Z,51.78
2023-07-25T21:51:05.241Z,51.73
2023-07-25T21:53:34.292Z,51.57
2023-07-25T21:56:02.941Z,51.85
2023-07-25T21:58:31.717Z,51.83
2023-07-25T22:01:01.795Z,51.81
2023-07-25T22:03:31.084Z,51.63
2023-07-25T22:06:00.548Z,52.08
2023-07-25T22:08:29.207Z,52.15
2023-07-25T22:10:58.004Z,51.88
2023-07-25T22:13:26.840Z,52.16
2023-07-25T22:15:55.438Z,52.57
2023-07-25T22:18:25.401Z,52.43
2023-07-25T22:20:53.988Z,52.28
2023-07-25T22:23:22.704Z,52.65
2023-07-25T22:25:51.361Z,52.97
2023-07-25T22:28:19.838Z,53.17
2023-07-25T22:30:48.420Z,53.56
2023-07-25T22:33:16.920Z,53.37
2023-07-25T22:35:46.842Z,53.15
2023-07-25T22:38:15.367Z,53.48
2023-07-25T22:40:44.699Z,53.50
2023-07-25T22:43:13.326Z,53.83
2023-07-25T22:45:41.882Z,53.46
2023-07-25T22:48:10.489Z,53.69
2023-07-25T22:50:38.976Z,54.01
2023-07-25T22:53:08.839Z,54.06
2023-07-25T22:55:37.332Z,54.01
2023-07-25T22:58:05.805Z,53.72
2023-07-25T23:00:34.301Z,53.84
2023-07-25T23:03:02.903Z,54.20
2023-07-25T23:05:32.137Z,54.35
2023-07-25T23:08:00.642Z,54.06
2023-07-25T23:10:30.614Z,53.91
2023-07-25T23:12:59.092Z,54.22
2023-07-25T23:15:27.626Z,54.35
2023-07-25T23:17:56.159Z,54.14
2023-07-25T23:20:24.683Z,53.99
2023-07-25T23:22:53.239Z,54.25
2023-07-25T23:25:21.873Z,54.16
2023-07-25T23:27:51.817Z,54.41
2023-07-25T23:30:21.326Z,54.50
2023-07-25T23:32:49.876Z,54.30
2023-07-25T23:35:19.292Z,54.22
2023-07-25T23:37:47.900Z,54.45
2023-07-25T23:40:16.453Z,54.61
2023-07-25T23:42:45.007Z,54.11
2023-07-25T23:45:14.918Z,54.38
2023-07-25T23:47:43.802Z,54.45
2023-07-25T23:50:13.699Z,54.38
2023-07-25T23:52:42.191Z,54.64
2023-07-25T23:55:10.911Z,54.85
2023-07-25T23:57:39.479Z,54.59
